Waterstein, United Kingdom
Current Conditions -  °F | °C
As of 7:20 AM on Saturday 29 Nov 2014 (Local Time) from EGPL Reporting Station
Broken Clouds Broken Clouds  
Wind Chill: 39°   Ceiling: 1800
Heat Index: 43°   Visibility: 6mi
Dew Point: 43°   Wind: 6mph
Humidity: 100%   Direction: 170°S
Pressure: 29.8"   Gusts: NA
Location:  57.43°N, 6.77°W
Report Text: EGPL 290720Z 17005KT 9999 BKN018 06/06 Q1009
Loading
Personal Weather Stations






























Interactive Weather Map New forecast layout! Learn more

10-Day Weather Forecast

Advertisements
Track Severe Weather on mobile